createdAt,value
2023-03-28T00:00:43.805Z,99.90
2023-03-28T00:03:14.466Z,99.90
2023-03-28T00:05:42.010Z,99.90
2023-03-28T00:08:09.671Z,99.90
2023-03-28T00:10:37.016Z,99.90
2023-03-28T00:13:05.432Z,99.90
2023-03-28T00:15:32.772Z,99.90
2023-03-28T00:18:01.148Z,99.90
2023-03-28T00:20:30.021Z,99.90
2023-03-28T00:22:57.545Z,99.90
2023-03-28T00:25:25.296Z,99.90
2023-03-28T00:27:52.527Z,99.90
2023-03-28T00:30:19.822Z,99.90
2023-03-28T00:32:49.347Z,99.90
2023-03-28T00:35:16.850Z,99.90
2023-03-28T00:37:45.793Z,99.90
2023-03-28T00:40:13.964Z,99.90
2023-03-28T00:42:42.815Z,99.90
2023-03-28T00:45:11.652Z,99.90
2023-03-28T00:47:49.416Z,99.90
2023-03-28T00:50:39.562Z,99.90
2023-03-28T00:53:26.343Z,99.90
2023-03-28T00:56:04.121Z,99.90
2023-03-28T00:58:37.770Z,99.90
2023-03-28T01:01:07.835Z,99.90
2023-03-28T01:03:37.420Z,99.90
2023-03-28T01:06:08.861Z,99.90
2023-03-28T01:08:41.731Z,99.90
2023-03-28T01:11:11.367Z,99.90
2023-03-28T01:13:43.889Z,99.90
2023-03-28T01:16:14.402Z,99.90
2023-03-28T01:18:46.948Z,99.90
2023-03-28T01:21:42.684Z,99.90
2023-03-28T01:24:38.802Z,99.90
2023-03-28T01:27:36.272Z,99.90
2023-03-28T01:30:25.583Z,99.90
2023-03-28T01:33:49.751Z,99.90
2023-03-28T01:36:42.969Z,99.90
2023-03-28T01:39:38.327Z,99.90
2023-03-28T01:42:50.971Z,99.90
2023-03-28T01:45:39.464Z,99.90
2023-03-28T01:48:17.291Z,99.90
2023-03-28T01:50:47.309Z,99.90
2023-03-28T01:53:51.287Z,99.90
2023-03-28T01:56:58.090Z,99.90
2023-03-28T01:59:44.261Z,99.90
2023-03-28T02:02:42.162Z,99.90
2023-03-28T02:05:34.686Z,99.90
2023-03-28T02:08:08.265Z,99.90
2023-03-28T02:10:43.617Z,99.90
2023-03-28T02:13:56.681Z,99.90
2023-03-28T02:16:41.415Z,99.90
2023-03-28T02:19:25.002Z,99.90
2023-03-28T02:22:38.470Z,99.90
2023-03-28T02:25:18.346Z,99.90
2023-03-28T02:28:01.147Z,99.90
2023-03-28T02:30:37.569Z,99.90
2023-03-28T02:33:09.588Z,99.90
2023-03-28T02:35:55.433Z,99.90
2023-03-28T02:38:48.574Z,99.90
2023-03-28T02:41:18.852Z,99.90
2023-03-28T02:44:27.245Z,99.90
2023-03-28T02:47:03.584Z,99.90
2023-03-28T02:50:09.689Z,99.90
2023-03-28T02:52:59.677Z,99.90
2023-03-28T02:55:50.085Z,99.90
2023-03-28T02:58:53.375Z,99.90
2023-03-28T03:01:21.962Z,99.90
2023-03-28T03:03:49.997Z,99.90
2023-03-28T03:06:17.973Z,99.90
2023-03-28T03:08:46.483Z,99.90
2023-03-28T03:11:15.901Z,99.90
2023-03-28T03:13:43.943Z,99.90
2023-03-28T03:16:11.395Z,99.90
2023-03-28T03:18:38.688Z,99.90
2023-03-28T03:21:06.326Z,99.90
2023-03-28T03:23:33.528Z,99.90
2023-03-28T03:26:00.917Z,99.90
2023-03-28T03:28:33.627Z,99.90
2023-03-28T03:31:04.044Z,99.90
2023-03-28T03:33:37.589Z,99.90
2023-03-28T03:36:06.732Z,99.90
2023-03-28T03:38:35.062Z,99.90
2023-03-28T03:41:02.983Z,99.90
2023-03-28T03:43:30.394Z,99.90
2023-03-28T03:45:59.086Z,99.90
2023-03-28T03:48:28.243Z,99.90
2023-03-28T03:50:58.667Z,99.90
2023-03-28T03:53:25.984Z,99.90
2023-03-28T03:56:06.427Z,99.90
2023-03-28T03:58:51.744Z,99.90
2023-03-28T04:01:19.715Z,99.90
2023-03-28T04:03:48.194Z,99.90
2023-03-28T04:06:23.400Z,99.90
2023-03-28T04:08:54.119Z,99.90
2023-03-28T04:11:38.073Z,99.90
2023-03-28T04:14:05.376Z,99.90
2023-03-28T04:16:41.060Z,99.90
2023-03-28T04:19:10.807Z,99.90
2023-03-28T04:21:41.557Z,99.90
2023-03-28T04:24:15.499Z,99.90
2023-03-28T04:26:50.139Z,99.90
2023-03-28T04:29:24.919Z,99.90
2023-03-28T04:32:12.791Z,99.90
2023-03-28T04:35:00.939Z,99.90
2023-03-28T04:37:28.125Z,99.90
2023-03-28T04:39:58.302Z,99.90
2023-03-28T04:42:43.513Z,99.90
2023-03-28T04:45:15.038Z,99.90
2023-03-28T04:47:43.901Z,99.90
2023-03-28T04:50:21.818Z,99.90
2023-03-28T04:52:49.108Z,99.90
2023-03-28T04:55:17.421Z,99.90
2023-03-28T04:57:46.848Z,99.90
2023-03-28T05:00:16.922Z,99.90
2023-03-28T05:03:00.246Z,99.90
2023-03-28T05:05:30.966Z,99.90
2023-03-28T05:07:59.047Z,99.90
2023-03-28T05:10:26.874Z,99.90
2023-03-28T05:13:00.759Z,99.90
2023-03-28T05:15:28.509Z,99.90
2023-03-28T05:18:03.886Z,99.90
2023-03-28T05:20:34.111Z,99.90
2023-03-28T05:23:02.787Z,99.90
2023-03-28T05:25:31.907Z,99.90
2023-03-28T05:27:59.420Z,99.90
2023-03-28T05:30:27.077Z,99.90
2023-03-28T05:32:56.538Z,99.90
2023-03-28T05:35:23.790Z,99.90
2023-03-28T05:37:52.422Z,99.90
2023-03-28T05:40:20.181Z,99.90
2023-03-28T05:42:47.486Z,99.90
2023-03-28T05:45:18.448Z,99.90
2023-03-28T05:47:52.448Z,99.90
2023-03-28T05:50:21.253Z,99.90
2023-03-28T05:52:48.659Z,99.90
2023-03-28T05:55:16.017Z,99.90
2023-03-28T05:57:44.528Z,99.90
2023-03-28T06:00:15.299Z,99.90
2023-03-28T06:02:52.312Z,99.90
2023-03-28T06:05:31.394Z,99.90
2023-03-28T06:07:58.633Z,99.90
2023-03-28T06:10:29.655Z,99.90
2023-03-28T06:13:22.033Z,99.90
2023-03-28T06:15:49.367Z,99.90
2023-03-28T06:18:18.443Z,99.90
2023-03-28T06:20:48.917Z,99.90
2023-03-28T06:23:16.364Z,99.90
2023-03-28T06:25:44.543Z,99.90
2023-03-28T06:28:14.690Z,99.90
2023-03-28T06:31:12.080Z,99.90
2023-03-28T06:33:41.360Z,99.90
2023-03-28T06:36:09.276Z,99.90
2023-03-28T06:38:36.991Z,99.90
2023-03-28T06:41:06.395Z,99.90
2023-03-28T06:43:35.604Z,99.90
2023-03-28T06:46:13.598Z,99.90
2023-03-28T06:48:45.054Z,99.90
2023-03-28T06:51:24.788Z,99.90
2023-03-28T06:53:52.222Z,99.90
2023-03-28T06:56:25.069Z,99.90
2023-03-28T06:58:52.636Z,99.90
2023-03-28T07:01:24.870Z,99.90
2023-03-28T07:04:08.028Z,99.90
2023-03-28T07:06:36.719Z,99.90
2023-03-28T07:09:06.445Z,99.90
2023-03-28T07:11:40.330Z,99.90
2023-03-28T07:14:07.543Z,99.90
2023-03-28T07:16:34.787Z,99.90
2023-03-28T07:19:02.018Z,99.90
2023-03-28T07:21:33.553Z,99.90
2023-03-28T07:24:03.319Z,99.90
2023-03-28T07:26:42.376Z,99.90
2023-03-28T07:29:09.662Z,99.90
2023-03-28T07:31:37.131Z,99.90
2023-03-28T07:34:04.388Z,99.90
2023-03-28T07:36:31.714Z,99.90
2023-03-28T07:39:09.000Z,99.90
2023-03-28T07:41:36.326Z,99.90
2023-03-28T07:44:03.546Z,99.90
2023-03-28T07:46:32.138Z,99.90
2023-03-28T07:49:00.784Z,99.90
2023-03-28T07:51:28.317Z,99.90
2023-03-28T07:53:55.745Z,99.90
2023-03-28T07:56:23.440Z,99.90
2023-03-28T07:59:01.883Z,99.90
2023-03-28T08:01:29.276Z,99.90
2023-03-28T08:04:01.133Z,99.90
2023-03-28T08:06:39.948Z,99.90
2023-03-28T08:09:09.746Z,99.90
2023-03-28T08:11:45.824Z,99.90
2023-03-28T08:14:16.014Z,99.90
2023-03-28T08:16:47.404Z,99.90
2023-03-28T08:19:15.327Z,99.90
2023-03-28T08:22:16.592Z,99.90
2023-03-28T08:24:51.180Z,99.90
2023-03-28T08:27:23.289Z,99.90
2023-03-28T08:29:54.075Z,99.90
2023-03-28T08:32:21.436Z,99.90
2023-03-28T08:34:48.751Z,99.90
2023-03-28T08:37:19.569Z,99.90
2023-03-28T08:39:48.859Z,99.90
2023-03-28T08:42:23.450Z,99.90
2023-03-28T08:45:08.814Z,99.90
2023-03-28T08:47:45.406Z,99.90
2023-03-28T08:50:24.524Z,99.90
2023-03-28T08:52:52.737Z,99.90
2023-03-28T08:55:28.125Z,99.90
2023-03-28T08:57:56.028Z,99.90
2023-03-28T09:00:31.044Z,99.90
2023-03-28T09:02:59.067Z,99.90
2023-03-28T09:05:44.653Z,99.90
2023-03-28T09:08:50.915Z,99.90
2023-03-28T09:11:41.906Z,99.90
2023-03-28T09:14:24.565Z,99.90
2023-03-28T09:17:11.085Z,99.90
2023-03-28T09:19:58.477Z,99.90
2023-03-28T09:23:04.713Z,99.90
2023-03-28T09:26:07.760Z,99.90
2023-03-28T09:28:57.169Z,99.90
2023-03-28T09:31:30.076Z,99.90
2023-03-28T09:34:00.584Z,99.90
2023-03-28T09:36:49.672Z,99.90
2023-03-28T09:39:49.396Z,99.90
2023-03-28T09:42:27.579Z,99.90
2023-03-28T09:45:51.018Z,99.90
2023-03-28T09:48:38.285Z,99.90
2023-03-28T09:51:16.094Z,99.90
2023-03-28T09:53:43.940Z,99.90
2023-03-28T09:56:33.094Z,99.90
2023-03-28T09:59:29.138Z,99.90
2023-03-28T10:02:02.399Z,99.90
2023-03-28T10:04:39.005Z,99.90
2023-03-28T10:07:42.308Z,99.90
2023-03-28T10:10:34.981Z,99.90
2023-03-28T10:13:11.674Z,99.90
2023-03-28T10:15:43.817Z,99.90
2023-03-28T10:18:21.988Z,99.90
2023-03-28T10:21:26.454Z,99.90
2023-03-28T10:24:07.118Z,99.90
2023-03-28T10:26:36.032Z,99.90
2023-03-28T10:29:07.536Z,99.90
2023-03-28T10:31:38.846Z,99.90
2023-03-28T10:35:06.848Z,99.90
2023-03-28T10:37:48.319Z,99.90
2023-03-28T10:40:23.952Z,99.90
2023-03-28T10:43:14.623Z,99.90
2023-03-28T10:46:21.086Z,99.90
2023-03-28T10:49:13.462Z,99.90
2023-03-28T10:51:43.160Z,99.90
2023-03-28T10:54:21.790Z,99.90
2023-03-28T10:57:12.469Z,99.90
2023-03-28T10:59:51.522Z,99.90
2023-03-28T11:02:40.626Z,99.90
2023-03-28T11:05:55.072Z,99.90
2023-03-28T11:09:01.813Z,99.90
2023-03-28T11:12:07.269Z,99.90
2023-03-28T11:14:52.799Z,99.90
2023-03-28T11:17:34.643Z,99.90
2023-03-28T11:20:22.890Z,99.90
2023-03-28T11:23:06.455Z,99.90
2023-03-28T11:26:13.158Z,99.90
2023-03-28T11:29:30.428Z,99.90
2023-03-28T11:32:16.379Z,99.90
2023-03-28T11:34:49.922Z,99.90
2023-03-28T11:37:30.828Z,99.90
2023-03-28T11:40:01.115Z,99.90
2023-03-28T11:42:49.570Z,99.90
2023-03-28T11:45:47.247Z,99.90
2023-03-28T11:48:33.581Z,99.90
2023-03-28T11:51:29.063Z,99.90
2023-03-28T11:54:02.765Z,99.90
2023-03-28T11:56:43.349Z,99.90
2023-03-28T11:59:24.021Z,99.90
2023-03-28T12:02:01.493Z,99.90
2023-03-28T12:04:35.078Z,99.90
2023-03-28T12:07:32.194Z,99.90
2023-03-28T12:10:25.711Z,99.90
2023-03-28T12:13:18.826Z,99.90
2023-03-28T12:16:18.616Z,99.90
2023-03-28T12:19:09.765Z,99.90
2023-03-28T12:22:09.035Z,99.90
2023-03-28T12:25:13.583Z,99.90
2023-03-28T12:28:12.667Z,99.90
2023-03-28T12:30:50.403Z,99.90
2023-03-28T12:33:30.428Z,99.90
2023-03-28T12:36:17.498Z,99.90
2023-03-28T12:39:17.469Z,99.90
2023-03-28T12:41:47.361Z,99.90
2023-03-28T12:44:24.433Z,99.90
2023-03-28T12:46:59.703Z,99.50
2023-03-28T12:49:58.345Z,99.90
2023-03-28T12:52:32.442Z,99.90
2023-03-28T12:55:09.674Z,99.90
2023-03-28T12:57:45.171Z,99.80
2023-03-28T13:00:48.039Z,99.50
2023-03-28T13:04:13.576Z,99.80
2023-03-28T13:07:16.984Z,99.90
2023-03-28T13:10:04.672Z,98.20
2023-03-28T13:12:45.037Z,99.10
2023-03-28T13:15:14.921Z,98.80
2023-03-28T13:18:08.859Z,99.90
2023-03-28T13:20:45.732Z,99.20
2023-03-28T13:23:17.637Z,99.00
2023-03-28T13:25:57.509Z,99.90
2023-03-28T13:28:29.649Z,99.90
2023-03-28T13:31:07.506Z,99.90
2023-03-28T13:33:38.281Z,99.10
2023-03-28T13:36:05.828Z,99.90
2023-03-28T13:38:45.074Z,99.60
2023-03-28T13:41:55.066Z,99.90
2023-03-28T13:44:29.256Z,98.10
2023-03-28T13:46:57.126Z,97.20
2023-03-28T13:49:30.449Z,99.30
2023-03-28T13:52:04.707Z,98.20
2023-03-28T13:54:32.381Z,99.10
2023-03-28T13:57:08.604Z,99.90
2023-03-28T13:59:49.275Z,97.00
2023-03-28T14:02:19.588Z,96.70
2023-03-28T14:05:03.978Z,97.30
2023-03-28T14:07:31.230Z,96.80
2023-03-28T14:09:58.448Z,97.60
2023-03-28T14:12:30.406Z,99.30
2023-03-28T14:15:00.349Z,99.90
2023-03-28T14:17:32.555Z,97.40
2023-03-28T14:20:04.705Z,97.40
2023-03-28T14:22:33.749Z,98.60
2023-03-28T14:25:03.709Z,99.00
2023-03-28T14:27:39.933Z,99.90
2023-03-28T14:30:24.658Z,96.80
2023-03-28T14:32:58.885Z,96.50
2023-03-28T14:35:29.468Z,98.40
2023-03-28T14:38:01.907Z,98.40
2023-03-28T14:40:40.977Z,97.50
2023-03-28T14:43:12.998Z,98.80
2023-03-28T14:45:47.884Z,97.50
2023-03-28T14:48:19.582Z,97.90
2023-03-28T14:50:50.764Z,98.80
2023-03-28T14:53:24.414Z,98.10
2023-03-28T14:55:54.440Z,97.70
2023-03-28T14:58:24.513Z,98.00
2023-03-28T15:00:54.893Z,96.90
2023-03-28T15:03:43.693Z,96.80
2023-03-28T15:06:16.288Z,94.20
2023-03-28T15:08:45.520Z,95.40
2023-03-28T15:11:20.437Z,95.50
2023-03-28T15:13:50.872Z,95.70
2023-03-28T15:16:25.940Z,95.90
2023-03-28T15:19:28.375Z,95.20
2023-03-28T15:22:00.155Z,94.90
2023-03-28T15:24:28.641Z,96.50
2023-03-28T15:27:01.417Z,97.80
2023-03-28T15:29:33.517Z,97.60
2023-03-28T15:32:05.057Z,97.40
2023-03-28T15:34:43.746Z,96.70
2023-03-28T15:37:22.071Z,96.60
2023-03-28T15:39:50.875Z,96.60
2023-03-28T15:42:23.526Z,97.80
2023-03-28T15:44:56.744Z,96.20
2023-03-28T15:47:27.625Z,96.30
2023-03-28T15:50:13.352Z,97.10
2023-03-28T15:52:44.049Z,97.30
2023-03-28T15:55:20.621Z,98.20
2023-03-28T15:57:48.167Z,97.40
2023-03-28T16:00:42.582Z,98.40
2023-03-28T16:03:26.533Z,98.40
2023-03-28T16:06:09.681Z,96.80
2023-03-28T16:08:42.279Z,97.00
2023-03-28T16:11:16.246Z,97.40
2023-03-28T16:14:03.470Z,97.60
2023-03-28T16:16:55.749Z,98.10
2023-03-28T16:19:34.031Z,96.90
2023-03-28T16:22:01.486Z,97.20
2023-03-28T16:24:28.737Z,97.80
2023-03-28T16:26:56.326Z,98.00
2023-03-28T16:29:23.492Z,95.60
2023-03-28T16:31:51.194Z,96.10
2023-03-28T16:34:18.386Z,97.50
2023-03-28T16:36:45.788Z,96.20
2023-03-28T16:39:13.017Z,96.70
2023-03-28T16:41:40.427Z,98.10
2023-03-28T16:44:07.957Z,97.30
2023-03-28T16:46:35.414Z,97.10
2023-03-28T16:49:02.819Z,97.40
2023-03-28T16:51:29.964Z,97.90
2023-03-28T16:53:57.366Z,97.90
2023-03-28T16:56:27.383Z,98.30
2023-03-28T16:58:54.623Z,96.40
2023-03-28T17:01:22.749Z,95.10
2023-03-28T17:03:52.511Z,95.10
2023-03-28T17:06:20.043Z,95.70
2023-03-28T17:08:47.993Z,97.40
2023-03-28T17:11:15.708Z,98.00
2023-03-28T17:13:43.029Z,98.60
2023-03-28T17:16:11.157Z,98.30
2023-03-28T17:18:38.406Z,97.70
2023-03-28T17:21:08.297Z,98.50
2023-03-28T17:23:37.895Z,99.00
2023-03-28T17:26:07.627Z,99.90
2023-03-28T17:28:39.059Z,99.90
2023-03-28T17:31:13.579Z,99.90
2023-03-28T17:33:41.054Z,99.90
2023-03-28T17:36:21.237Z,99.90
2023-03-28T17:38:54.140Z,99.90
2023-03-28T17:41:24.872Z,99.90
2023-03-28T17:43:53.185Z,99.90
2023-03-28T17:46:21.397Z,99.90
2023-03-28T17:48:49.129Z,99.90
2023-03-28T17:51:17.421Z,99.90
2023-03-28T17:53:46.849Z,99.90
2023-03-28T17:56:16.166Z,99.90
2023-03-28T17:58:44.444Z,99.90
2023-03-28T18:01:14.603Z,99.90
2023-03-28T18:03:42.206Z,99.90
2023-03-28T18:06:22.925Z,99.90
2023-03-28T18:08:50.172Z,99.90
2023-03-28T18:11:18.085Z,99.90
2023-03-28T18:13:45.275Z,99.90
2023-03-28T18:16:15.882Z,99.90
2023-03-28T18:18:43.247Z,99.90
2023-03-28T18:21:11.643Z,99.90
2023-03-28T18:23:38.828Z,99.90
2023-03-28T18:26:06.673Z,99.90
2023-03-28T18:28:34.645Z,99.90
2023-03-28T18:31:14.270Z,99.90
2023-03-28T18:33:45.675Z,99.90
2023-03-28T18:36:13.971Z,99.90
2023-03-28T18:38:43.326Z,99.90
2023-03-28T18:41:12.371Z,99.90
2023-03-28T18:43:41.945Z,99.90
2023-03-28T18:46:15.257Z,99.90
2023-03-28T18:48:44.498Z,99.90
2023-03-28T18:51:11.965Z,99.90
2023-03-28T18:53:39.204Z,99.90
2023-03-28T18:56:07.282Z,99.90
2023-03-28T18:58:36.609Z,99.90
2023-03-28T19:01:04.228Z,99.90
2023-03-28T19:03:38.430Z,99.90
2023-03-28T19:06:08.029Z,99.90
2023-03-28T19:08:35.458Z,99.90
2023-03-28T19:11:09.483Z,99.90
2023-03-28T19:13:36.684Z,99.90
2023-03-28T19:16:06.851Z,99.90
2023-03-28T19:18:37.311Z,99.90
2023-03-28T19:21:04.923Z,99.90
2023-03-28T19:23:32.318Z,99.90
2023-03-28T19:26:00.571Z,99.90
2023-03-28T19:28:27.982Z,99.90
2023-03-28T19:30:59.777Z,99.90
2023-03-28T19:33:27.786Z,99.90
2023-03-28T19:35:55.550Z,99.90
2023-03-28T19:38:24.322Z,99.90
2023-03-28T19:40:58.091Z,99.90
2023-03-28T19:43:26.127Z,99.90
2023-03-28T19:45:53.596Z,99.90
2023-03-28T19:48:21.003Z,99.90
2023-03-28T19:50:50.834Z,99.90
2023-03-28T19:53:18.035Z,99.90
2023-03-28T19:55:52.112Z,99.90
2023-03-28T19:58:19.643Z,99.90
2023-03-28T20:00:48.100Z,99.90
2023-03-28T20:03:16.194Z,99.90
2023-03-28T20:05:48.164Z,99.90
2023-03-28T20:08:16.088Z,99.90
2023-03-28T20:10:51.433Z,99.90
2023-03-28T20:13:19.010Z,99.90
2023-03-28T20:15:47.119Z,99.90
2023-03-28T20:18:20.614Z,99.90
2023-03-28T20:20:53.039Z,99.90
2023-03-28T20:23:23.341Z,99.90
2023-03-28T20:25:52.133Z,99.90
2023-03-28T20:28:24.328Z,99.90
2023-03-28T20:30:53.182Z,99.90
2023-03-28T20:33:21.349Z,99.90
2023-03-28T20:35:57.076Z,99.90
2023-03-28T20:38:25.606Z,99.90
2023-03-28T20:40:53.287Z,99.90
2023-03-28T20:43:20.773Z,99.90
2023-03-28T20:45:55.471Z,99.90
2023-03-28T20:48:34.412Z,99.90
2023-03-28T20:51:13.810Z,99.90
2023-03-28T20:53:42.466Z,99.90
2023-03-28T20:56:11.561Z,99.90
2023-03-28T20:58:39.518Z,99.90
2023-03-28T21:01:09.941Z,99.90
2023-03-28T21:03:58.660Z,99.90
2023-03-28T21:06:35.947Z,99.90
2023-03-28T21:09:06.049Z,99.90
2023-03-28T21:11:36.518Z,99.90
2023-03-28T21:14:05.462Z,99.90
2023-03-28T21:16:33.958Z,99.90
2023-03-28T21:19:02.461Z,99.90
2023-03-28T21:21:30.324Z,99.90
2023-03-28T21:23:57.562Z,99.90
2023-03-28T21:26:24.846Z,99.90
2023-03-28T21:28:52.842Z,99.90
2023-03-28T21:31:25.491Z,99.90
2023-03-28T21:33:56.723Z,99.90
2023-03-28T21:36:24.580Z,99.90
2023-03-28T21:38:52.020Z,99.90
2023-03-28T21:41:19.311Z,99.90
2023-03-28T21:43:47.631Z,99.90
2023-03-28T21:46:18.051Z,99.90
2023-03-28T21:48:47.528Z,99.90
2023-03-28T21:51:15.505Z,99.90
2023-03-28T21:53:42.876Z,99.90
2023-03-28T21:56:12.574Z,99.90
2023-03-28T21:58:40.245Z,99.90
2023-03-28T22:01:08.873Z,99.90
2023-03-28T22:03:37.380Z,99.90
2023-03-28T22:06:07.485Z,99.90
2023-03-28T22:08:34.912Z,99.90
2023-03-28T22:11:04.225Z,99.90
2023-03-28T22:13:31.820Z,99.90
2023-03-28T22:15:59.839Z,99.90
2023-03-28T22:18:28.276Z,99.90
2023-03-28T22:20:55.570Z,99.90
2023-03-28T22:23:24.338Z,99.90
2023-03-28T22:25:52.570Z,99.90
2023-03-28T22:28:24.114Z,99.90
2023-03-28T22:30:55.642Z,99.90
2023-03-28T22:33:25.168Z,99.90
2023-03-28T22:35:53.048Z,99.90
2023-03-28T22:38:20.628Z,99.90
2023-03-28T22:40:47.928Z,99.90
2023-03-28T22:43:16.474Z,99.90
2023-03-28T22:45:43.800Z,99.90
2023-03-28T22:48:14.182Z,99.90
2023-03-28T22:50:44.062Z,99.90
2023-03-28T22:53:12.257Z,99.90
2023-03-28T22:55:40.114Z,99.90
2023-03-28T22:58:08.103Z,99.90
2023-03-28T23:00:36.170Z,99.90
2023-03-28T23:03:04.117Z,99.90
2023-03-28T23:05:31.885Z,99.90
2023-03-28T23:08:00.093Z,99.90
2023-03-28T23:10:27.917Z,99.90
2023-03-28T23:12:55.110Z,99.90
2023-03-28T23:15:22.447Z,99.90
2023-03-28T23:17:50.291Z,99.90
2023-03-28T23:20:19.072Z,99.90
2023-03-28T23:22:48.444Z,99.90
2023-03-28T23:25:18.347Z,99.90
2023-03-28T23:27:46.581Z,99.90
2023-03-28T23:30:15.885Z,99.90
2023-03-28T23:32:43.381Z,99.90
2023-03-28T23:35:11.591Z,99.90
2023-03-28T23:37:39.292Z,99.90
2023-03-28T23:40:13.980Z,99.90
2023-03-28T23:42:45.271Z,99.90
2023-03-28T23:45:14.793Z,99.90
2023-03-28T23:47:43.747Z,99.90
2023-03-28T23:50:12.021Z,99.90
2023-03-28T23:52:39.860Z,99.90
2023-03-28T23:55:08.466Z,99.90
2023-03-28T23:57:35.963Z,99.90
